sensor_id;sensor_type;location;lat;lon;timestamp;P1;durP1;ratioP1;P2;durP2;ratioP2
35632;SDS011;21754;48.216;-1.628;2023-03-01T00:01:25;15.38;;;8.43;;
35632;SDS011;21754;48.216;-1.628;2023-03-01T00:03:51;11.15;;;8.60;;
35632;SDS011;21754;48.216;-1.628;2023-03-01T00:06:18;10.63;;;8.20;;
35632;SDS011;21754;48.216;-1.628;2023-03-01T00:08:44;11.85;;;8.75;;
35632;SDS011;21754;48.216;-1.628;2023-03-01T00:11:12;17.60;;;9.70;;
35632;SDS011;21754;48.216;-1.628;2023-03-01T00:16:05;19.98;;;10.43;;
35632;SDS011;21754;48.216;-1.628;2023-03-01T00:18:31;15.40;;;9.60;;
35632;SDS011;21754;48.216;-1.628;2023-03-01T00:20:57;17.10;;;9.63;;
35632;SDS011;21754;48.216;-1.628;2023-03-01T00:23:23;13.75;;;10.40;;
35632;SDS011;21754;48.216;-1.628;2023-03-01T00:25:50;14.02;;;9.57;;
35632;SDS011;21754;48.216;-1.628;2023-03-01T00:28:16;15.38;;;9.90;;
35632;SDS011;21754;48.216;-1.628;2023-03-01T00:30:42;16.25;;;10.13;;
35632;SDS011;21754;48.216;-1.628;2023-03-01T00:33:08;15.15;;;9.73;;
35632;SDS011;21754;48.216;-1.628;2023-03-01T00:35:34;14.52;;;10.27;;
35632;SDS011;21754;48.216;-1.628;2023-03-01T00:38:00;15.30;;;10.02;;
35632;SDS011;21754;48.216;-1.628;2023-03-01T00:40:27;13.85;;;10.27;;
35632;SDS011;21754;48.216;-1.628;2023-03-01T00:42:53;13.88;;;10.60;;
35632;SDS011;21754;48.216;-1.628;2023-03-01T00:45:19;15.73;;;11.65;;
35632;SDS011;21754;48.216;-1.628;2023-03-01T00:47:46;17.42;;;11.20;;
35632;SDS011;21754;48.216;-1.628;2023-03-01T00:50:12;15.23;;;10.73;;
35632;SDS011;21754;48.216;-1.628;2023-03-01T00:52:38;22.90;;;12.75;;
35632;SDS011;21754;48.216;-1.628;2023-03-01T00:55:04;15.00;;;9.45;;
35632;SDS011;21754;48.216;-1.628;2023-03-01T00:57:31;18.52;;;11.18;;
35632;SDS011;21754;48.216;-1.628;2023-03-01T00:59:57;16.58;;;11.38;;
35632;SDS011;21754;48.216;-1.628;2023-03-01T01:02:23;13.30;;;9.55;;
35632;SDS011;21754;48.216;-1.628;2023-03-01T01:04:49;13.18;;;10.15;;
35632;SDS011;21754;48.216;-1.628;2023-03-01T01:07:16;13.00;;;10.27;;
35632;SDS011;21754;48.216;-1.628;2023-03-01T01:09:42;20.90;;;11.48;;
35632;SDS011;21754;48.216;-1.628;2023-03-01T01:12:08;15.63;;;10.13;;
35632;SDS011;21754;48.216;-1.628;2023-03-01T01:14:35;19.42;;;10.55;;
35632;SDS011;21754;48.216;-1.628;2023-03-01T01:17:01;17.70;;;10.90;;
35632;SDS011;21754;48.216;-1.628;2023-03-01T01:19:27;17.17;;;10.63;;
35632;SDS011;21754;48.216;-1.628;2023-03-01T01:21:53;15.00;;;11.18;;
35632;SDS011;21754;48.216;-1.628;2023-03-01T01:24:19;18.10;;;10.82;;
35632;SDS011;21754;48.216;-1.628;2023-03-01T01:26:45;28.73;;;11.98;;
35632;SDS011;21754;48.216;-1.628;2023-03-01T01:29:11;19.42;;;10.93;;
35632;SDS011;21754;48.216;-1.628;2023-03-01T01:31:38;22.92;;;11.93;;
35632;SDS011;21754;48.216;-1.628;2023-03-01T01:34:05;21.38;;;10.63;;
35632;SDS011;21754;48.216;-1.628;2023-03-01T01:36:32;16.35;;;10.68;;
35632;SDS011;21754;48.216;-1.628;2023-03-01T01:38:58;17.38;;;10.73;;
35632;SDS011;21754;48.216;-1.628;2023-03-01T01:41:25;13.30;;;9.73;;
35632;SDS011;21754;48.216;-1.628;2023-03-01T01:46:36;14.77;;;10.30;;
35632;SDS011;21754;48.216;-1.628;2023-03-01T01:49:05;15.70;;;10.05;;
35632;SDS011;21754;48.216;-1.628;2023-03-01T01:51:32;15.57;;;10.80;;
35632;SDS011;21754;48.216;-1.628;2023-03-01T01:54:04;16.05;;;10.18;;
35632;SDS011;21754;48.216;-1.628;2023-03-01T01:56:31;16.45;;;10.93;;
35632;SDS011;21754;48.216;-1.628;2023-03-01T01:58:58;12.80;;;8.93;;
35632;SDS011;21754;48.216;-1.628;2023-03-01T02:01:24;13.73;;;9.35;;
35632;SDS011;21754;48.216;-1.628;2023-03-01T02:03:50;12.85;;;8.93;;
35632;SDS011;21754;48.216;-1.628;2023-03-01T02:06:18;16.23;;;10.20;;
35632;SDS011;21754;48.216;-1.628;2023-03-01T02:08:45;14.18;;;9.30;;
35632;SDS011;21754;48.216;-1.628;2023-03-01T02:11:12;14.93;;;10.38;;
35632;SDS011;21754;48.216;-1.628;2023-03-01T02:13:42;13.23;;;8.73;;
35632;SDS011;21754;48.216;-1.628;2023-03-01T02:16:09;12.52;;;9.32;;
35632;SDS011;21754;48.216;-1.628;2023-03-01T02:18:35;13.70;;;10.55;;
35632;SDS011;21754;48.216;-1.628;2023-03-01T02:23:47;11.75;;;9.27;;
35632;SDS011;21754;48.216;-1.628;2023-03-01T02:26:29;11.82;;;9.30;;
35632;SDS011;21754;48.216;-1.628;2023-03-01T02:28:58;10.90;;;9.73;;
35632;SDS011;21754;48.216;-1.628;2023-03-01T02:31:24;10.43;;;7.20;;
35632;SDS011;21754;48.216;-1.628;2023-03-01T02:34:14;12.15;;;10.05;;
35632;SDS011;21754;48.216;-1.628;2023-03-01T02:36:42;17.52;;;9.60;;
35632;SDS011;21754;48.216;-1.628;2023-03-01T02:39:11;13.45;;;9.25;;
35632;SDS011;21754;48.216;-1.628;2023-03-01T02:41:39;16.05;;;9.57;;
35632;SDS011;21754;48.216;-1.628;2023-03-01T02:44:06;12.75;;;9.32;;
35632;SDS011;21754;48.216;-1.628;2023-03-01T02:46:33;14.68;;;9.48;;
35632;SDS011;21754;48.216;-1.628;2023-03-01T02:48:59;15.73;;;10.07;;
35632;SDS011;21754;48.216;-1.628;2023-03-01T02:51:27;18.60;;;9.23;;
35632;SDS011;21754;48.216;-1.628;2023-03-01T02:56:41;11.07;;;8.45;;
35632;SDS011;21754;48.216;-1.628;2023-03-01T02:59:08;11.38;;;9.48;;
35632;SDS011;21754;48.216;-1.628;2023-03-01T03:01:35;16.92;;;7.85;;
35632;SDS011;21754;48.216;-1.628;2023-03-01T03:04:11;13.38;;;9.60;;
35632;SDS011;21754;48.216;-1.628;2023-03-01T03:06:42;11.48;;;8.52;;
35632;SDS011;21754;48.216;-1.628;2023-03-01T03:09:08;11.40;;;8.38;;
35632;SDS011;21754;48.216;-1.628;2023-03-01T03:11:34;14.80;;;9.35;;
35632;SDS011;21754;48.216;-1.628;2023-03-01T03:14:01;13.60;;;8.60;;
35632;SDS011;21754;48.216;-1.628;2023-03-01T03:16:27;14.20;;;9.27;;
35632;SDS011;21754;48.216;-1.628;2023-03-01T03:18:54;14.07;;;9.48;;
35632;SDS011;21754;48.216;-1.628;2023-03-01T03:21:30;15.00;;;9.50;;
35632;SDS011;21754;48.216;-1.628;2023-03-01T03:23:57;13.23;;;9.50;;
35632;SDS011;21754;48.216;-1.628;2023-03-01T03:26:22;12.45;;;9.07;;
35632;SDS011;21754;48.216;-1.628;2023-03-01T03:28:48;11.25;;;8.43;;
35632;SDS011;21754;48.216;-1.628;2023-03-01T03:31:14;19.23;;;9.07;;
35632;SDS011;21754;48.216;-1.628;2023-03-01T03:33:40;12.73;;;9.18;;
35632;SDS011;21754;48.216;-1.628;2023-03-01T03:36:06;10.05;;;7.47;;
35632;SDS011;21754;48.216;-1.628;2023-03-01T03:38:38;11.15;;;8.38;;
35632;SDS011;21754;48.216;-1.628;2023-03-01T03:41:05;9.73;;;8.13;;
35632;SDS011;21754;48.216;-1.628;2023-03-01T03:43:32;14.98;;;8.65;;
35632;SDS011;21754;48.216;-1.628;2023-03-01T03:45:58;11.85;;;8.82;;
35632;SDS011;21754;48.216;-1.628;2023-03-01T03:48:25;8.85;;;6.80;;
35632;SDS011;21754;48.216;-1.628;2023-03-01T03:50:53;14.43;;;9.07;;
35632;SDS011;21754;48.216;-1.628;2023-03-01T03:53:19;13.90;;;9.13;;
35632;SDS011;21754;48.216;-1.628;2023-03-01T03:55:46;16.75;;;10.38;;
35632;SDS011;21754;48.216;-1.628;2023-03-01T03:58:14;15.30;;;8.75;;
35632;SDS011;21754;48.216;-1.628;2023-03-01T04:00:42;13.85;;;9.88;;
35632;SDS011;21754;48.216;-1.628;2023-03-01T04:03:09;13.13;;;8.60;;
35632;SDS011;21754;48.216;-1.628;2023-03-01T04:05:35;14.07;;;8.90;;
35632;SDS011;21754;48.216;-1.628;2023-03-01T04:08:02;12.38;;;9.23;;
35632;SDS011;21754;48.216;-1.628;2023-03-01T04:10:32;13.73;;;9.10;;
35632;SDS011;21754;48.216;-1.628;2023-03-01T04:12:59;10.88;;;9.13;;
35632;SDS011;21754;48.216;-1.628;2023-03-01T04:15:25;13.35;;;8.63;;
35632;SDS011;21754;48.216;-1.628;2023-03-01T04:17:52;11.85;;;8.63;;
35632;SDS011;21754;48.216;-1.628;2023-03-01T04:20:20;13.55;;;9.48;;
35632;SDS011;21754;48.216;-1.628;2023-03-01T04:22:57;13.75;;;7.80;;
35632;SDS011;21754;48.216;-1.628;2023-03-01T04:25:23;12.93;;;9.27;;
35632;SDS011;21754;48.216;-1.628;2023-03-01T04:27:49;13.40;;;7.40;;
35632;SDS011;21754;48.216;-1.628;2023-03-01T04:30:16;14.10;;;10.02;;
35632;SDS011;21754;48.216;-1.628;2023-03-01T04:32:42;15.32;;;8.48;;
35632;SDS011;21754;48.216;-1.628;2023-03-01T04:35:08;11.13;;;8.95;;
35632;SDS011;21754;48.216;-1.628;2023-03-01T04:37:34;11.27;;;8.98;;
35632;SDS011;21754;48.216;-1.628;2023-03-01T04:40:03;11.98;;;10.02;;
35632;SDS011;21754;48.216;-1.628;2023-03-01T04:42:41;11.07;;;8.48;;
35632;SDS011;21754;48.216;-1.628;2023-03-01T04:45:08;12.32;;;10.00;;
35632;SDS011;21754;48.216;-1.628;2023-03-01T04:47:40;14.85;;;10.38;;
35632;SDS011;21754;48.216;-1.628;2023-03-01T04:50:07;11.48;;;9.00;;
35632;SDS011;21754;48.216;-1.628;2023-03-01T04:52:34;13.73;;;10.05;;
35632;SDS011;21754;48.216;-1.628;2023-03-01T04:55:00;9.80;;;8.05;;
35632;SDS011;21754;48.216;-1.628;2023-03-01T04:57:26;13.60;;;10.25;;
35632;SDS011;21754;48.216;-1.628;2023-03-01T04:59:52;12.77;;;9.75;;
35632;SDS011;21754;48.216;-1.628;2023-03-01T05:02:18;14.95;;;8.73;;
35632;SDS011;21754;48.216;-1.628;2023-03-01T05:04:44;15.30;;;10.57;;
35632;SDS011;21754;48.216;-1.628;2023-03-01T05:07:10;14.65;;;8.57;;
35632;SDS011;21754;48.216;-1.628;2023-03-01T05:09:38;13.43;;;8.63;;
35632;SDS011;21754;48.216;-1.628;2023-03-01T05:12:04;10.00;;;8.07;;
35632;SDS011;21754;48.216;-1.628;2023-03-01T05:14:30;12.52;;;9.82;;
35632;SDS011;21754;48.216;-1.628;2023-03-01T05:16:56;16.83;;;10.88;;
35632;SDS011;21754;48.216;-1.628;2023-03-01T05:19:28;10.43;;;7.57;;
35632;SDS011;21754;48.216;-1.628;2023-03-01T05:21:56;18.40;;;10.02;;
35632;SDS011;21754;48.216;-1.628;2023-03-01T05:24:31;13.93;;;8.73;;
35632;SDS011;21754;48.216;-1.628;2023-03-01T05:26:58;18.33;;;9.98;;
35632;SDS011;21754;48.216;-1.628;2023-03-01T05:29:24;11.55;;;9.00;;
35632;SDS011;21754;48.216;-1.628;2023-03-01T05:31:54;12.40;;;8.80;;
35632;SDS011;21754;48.216;-1.628;2023-03-01T05:34:27;10.98;;;8.63;;
35632;SDS011;21754;48.216;-1.628;2023-03-01T05:36:54;17.35;;;9.93;;
35632;SDS011;21754;48.216;-1.628;2023-03-01T05:39:21;11.60;;;8.90;;
35632;SDS011;21754;48.216;-1.628;2023-03-01T05:41:47;24.83;;;9.50;;
35632;SDS011;21754;48.216;-1.628;2023-03-01T05:44:14;12.63;;;9.30;;
35632;SDS011;21754;48.216;-1.628;2023-03-01T05:46:40;12.52;;;10.48;;
35632;SDS011;21754;48.216;-1.628;2023-03-01T05:49:07;14.00;;;10.15;;
35632;SDS011;21754;48.216;-1.628;2023-03-01T05:51:33;19.42;;;10.38;;
35632;SDS011;21754;48.216;-1.628;2023-03-01T05:53:59;15.93;;;9.55;;
35632;SDS011;21754;48.216;-1.628;2023-03-01T05:56:25;13.45;;;8.68;;
35632;SDS011;21754;48.216;-1.628;2023-03-01T05:58:51;11.65;;;8.80;;
35632;SDS011;21754;48.216;-1.628;2023-03-01T06:01:17;15.07;;;8.50;;
35632;SDS011;21754;48.216;-1.628;2023-03-01T06:03:43;12.00;;;7.82;;
35632;SDS011;21754;48.216;-1.628;2023-03-01T06:06:09;10.57;;;7.65;;
35632;SDS011;21754;48.216;-1.628;2023-03-01T06:08:35;14.55;;;9.27;;
35632;SDS011;21754;48.216;-1.628;2023-03-01T06:11:01;17.27;;;9.38;;
35632;SDS011;21754;48.216;-1.628;2023-03-01T06:13:27;12.73;;;9.32;;
35632;SDS011;21754;48.216;-1.628;2023-03-01T06:15:54;15.90;;;9.25;;
35632;SDS011;21754;48.216;-1.628;2023-03-01T06:18:20;11.73;;;9.18;;
35632;SDS011;21754;48.216;-1.628;2023-03-01T06:20:52;12.80;;;9.05;;
35632;SDS011;21754;48.216;-1.628;2023-03-01T06:23:17;13.73;;;9.23;;
35632;SDS011;21754;48.216;-1.628;2023-03-01T06:25:43;13.60;;;8.95;;
35632;SDS011;21754;48.216;-1.628;2023-03-01T06:28:09;11.63;;;8.52;;
35632;SDS011;21754;48.216;-1.628;2023-03-01T06:30:35;9.65;;;7.35;;
35632;SDS011;21754;48.216;-1.628;2023-03-01T06:33:01;12.52;;;8.70;;
35632;SDS011;21754;48.216;-1.628;2023-03-01T06:35:31;12.02;;;8.27;;
35632;SDS011;21754;48.216;-1.628;2023-03-01T06:37:57;13.27;;;8.90;;
35632;SDS011;21754;48.216;-1.628;2023-03-01T06:40:24;11.77;;;7.18;;
35632;SDS011;21754;48.216;-1.628;2023-03-01T06:42:50;12.82;;;8.73;;
35632;SDS011;21754;48.216;-1.628;2023-03-01T06:45:17;14.38;;;8.32;;
35632;SDS011;21754;48.216;-1.628;2023-03-01T06:47:43;9.60;;;7.93;;
35632;SDS011;21754;48.216;-1.628;2023-03-01T06:50:10;10.82;;;8.55;;
35632;SDS011;21754;48.216;-1.628;2023-03-01T06:52:36;11.00;;;8.10;;
35632;SDS011;21754;48.216;-1.628;2023-03-01T06:55:02;10.52;;;7.95;;
35632;SDS011;21754;48.216;-1.628;2023-03-01T06:57:28;16.35;;;9.85;;
35632;SDS011;21754;48.216;-1.628;2023-03-01T06:59:54;11.65;;;8.68;;
35632;SDS011;21754;48.216;-1.628;2023-03-01T07:02:21;11.82;;;7.35;;
35632;SDS011;21754;48.216;-1.628;2023-03-01T07:04:48;13.43;;;8.63;;
35632;SDS011;21754;48.216;-1.628;2023-03-01T07:07:14;18.05;;;9.80;;
35632;SDS011;21754;48.216;-1.628;2023-03-01T07:09:40;13.55;;;9.05;;
35632;SDS011;21754;48.216;-1.628;2023-03-01T07:12:08;12.20;;;7.82;;
35632;SDS011;21754;48.216;-1.628;2023-03-01T07:14:34;12.77;;;8.90;;
35632;SDS011;21754;48.216;-1.628;2023-03-01T07:17:00;12.25;;;8.68;;
35632;SDS011;21754;48.216;-1.628;2023-03-01T07:19:26;15.40;;;9.82;;
35632;SDS011;21754;48.216;-1.628;2023-03-01T07:21:52;19.13;;;12.48;;
35632;SDS011;21754;48.216;-1.628;2023-03-01T07:24:18;16.63;;;9.60;;
35632;SDS011;21754;48.216;-1.628;2023-03-01T07:26:44;21.27;;;9.50;;
35632;SDS011;21754;48.216;-1.628;2023-03-01T07:29:10;15.15;;;9.85;;
35632;SDS011;21754;48.216;-1.628;2023-03-01T07:31:36;12.32;;;8.80;;
35632;SDS011;21754;48.216;-1.628;2023-03-01T07:34:02;17.00;;;9.35;;
35632;SDS011;21754;48.216;-1.628;2023-03-01T07:36:28;16.30;;;9.95;;
35632;SDS011;21754;48.216;-1.628;2023-03-01T07:38:54;12.00;;;9.07;;
35632;SDS011;21754;48.216;-1.628;2023-03-01T07:41:20;12.93;;;8.40;;
35632;SDS011;21754;48.216;-1.628;2023-03-01T07:43:47;17.50;;;9.52;;
35632;SDS011;21754;48.216;-1.628;2023-03-01T07:46:13;18.50;;;9.68;;
35632;SDS011;21754;48.216;-1.628;2023-03-01T07:48:39;12.05;;;8.52;;
35632;SDS011;21754;48.216;-1.628;2023-03-01T07:51:05;17.92;;;9.77;;
35632;SDS011;21754;48.216;-1.628;2023-03-01T07:53:32;14.43;;;8.02;;
35632;SDS011;21754;48.216;-1.628;2023-03-01T07:56:09;14.07;;;9.10;;
35632;SDS011;21754;48.216;-1.628;2023-03-01T07:58:36;17.85;;;8.82;;
35632;SDS011;21754;48.216;-1.628;2023-03-01T08:01:03;13.07;;;7.97;;
35632;SDS011;21754;48.216;-1.628;2023-03-01T08:03:29;12.98;;;8.02;;
35632;SDS011;21754;48.216;-1.628;2023-03-01T08:05:55;9.00;;;7.30;;
35632;SDS011;21754;48.216;-1.628;2023-03-01T08:08:21;13.45;;;7.93;;
35632;SDS011;21754;48.216;-1.628;2023-03-01T08:10:47;14.80;;;7.90;;
35632;SDS011;21754;48.216;-1.628;2023-03-01T08:13:13;16.15;;;8.57;;
35632;SDS011;21754;48.216;-1.628;2023-03-01T08:15:39;10.73;;;8.55;;
35632;SDS011;21754;48.216;-1.628;2023-03-01T08:18:05;15.38;;;9.60;;
35632;SDS011;21754;48.216;-1.628;2023-03-01T08:20:31;13.00;;;9.05;;
35632;SDS011;21754;48.216;-1.628;2023-03-01T08:22:57;21.42;;;8.93;;
35632;SDS011;21754;48.216;-1.628;2023-03-01T08:25:24;13.68;;;9.57;;
35632;SDS011;21754;48.216;-1.628;2023-03-01T08:27:50;16.17;;;10.80;;
35632;SDS011;21754;48.216;-1.628;2023-03-01T08:30:16;11.48;;;7.68;;
35632;SDS011;21754;48.216;-1.628;2023-03-01T08:32:42;15.45;;;9.20;;
35632;SDS011;21754;48.216;-1.628;2023-03-01T08:35:08;16.95;;;10.52;;
35632;SDS011;21754;48.216;-1.628;2023-03-01T08:37:34;13.68;;;8.95;;
35632;SDS011;21754;48.216;-1.628;2023-03-01T08:40:00;19.75;;;10.02;;
35632;SDS011;21754;48.216;-1.628;2023-03-01T08:42:26;19.88;;;10.05;;
35632;SDS011;21754;48.216;-1.628;2023-03-01T08:44:52;13.20;;;8.93;;
35632;SDS011;21754;48.216;-1.628;2023-03-01T08:47:18;13.20;;;8.90;;
35632;SDS011;21754;48.216;-1.628;2023-03-01T08:49:44;14.90;;;9.02;;
35632;SDS011;21754;48.216;-1.628;2023-03-01T08:52:10;20.63;;;11.23;;
35632;SDS011;21754;48.216;-1.628;2023-03-01T08:54:36;13.93;;;9.05;;
35632;SDS011;21754;48.216;-1.628;2023-03-01T08:57:02;16.33;;;9.57;;
35632;SDS011;21754;48.216;-1.628;2023-03-01T08:59:28;17.00;;;11.25;;
35632;SDS011;21754;48.216;-1.628;2023-03-01T09:01:55;15.27;;;10.93;;
35632;SDS011;21754;48.216;-1.628;2023-03-01T09:04:21;13.90;;;9.88;;
35632;SDS011;21754;48.216;-1.628;2023-03-01T09:06:47;14.02;;;8.70;;
35632;SDS011;21754;48.216;-1.628;2023-03-01T09:09:14;15.90;;;10.77;;
35632;SDS011;21754;48.216;-1.628;2023-03-01T09:11:43;14.50;;;8.75;;
35632;SDS011;21754;48.216;-1.628;2023-03-01T09:14:11;17.73;;;12.20;;
35632;SDS011;21754;48.216;-1.628;2023-03-01T09:16:37;21.50;;;10.90;;
35632;SDS011;21754;48.216;-1.628;2023-03-01T09:19:04;17.25;;;9.68;;
35632;SDS011;21754;48.216;-1.628;2023-03-01T09:21:31;14.60;;;9.32;;
35632;SDS011;21754;48.216;-1.628;2023-03-01T09:23:57;14.65;;;8.60;;
35632;SDS011;21754;48.216;-1.628;2023-03-01T09:26:23;12.35;;;8.70;;
35632;SDS011;21754;48.216;-1.628;2023-03-01T09:28:52;15.05;;;9.52;;
35632;SDS011;21754;48.216;-1.628;2023-03-01T09:31:19;16.55;;;8.13;;
35632;SDS011;21754;48.216;-1.628;2023-03-01T09:33:46;13.30;;;9.73;;
35632;SDS011;21754;48.216;-1.628;2023-03-01T09:38:41;12.60;;;8.52;;
35632;SDS011;21754;48.216;-1.628;2023-03-01T09:41:14;16.58;;;9.43;;
35632;SDS011;21754;48.216;-1.628;2023-03-01T09:44:04;21.23;;;9.77;;
35632;SDS011;21754;48.216;-1.628;2023-03-01T09:46:35;11.60;;;8.95;;
35632;SDS011;21754;48.216;-1.628;2023-03-01T09:49:10;10.40;;;7.38;;
35632;SDS011;21754;48.216;-1.628;2023-03-01T09:51:41;14.48;;;7.50;;
35632;SDS011;21754;48.216;-1.628;2023-03-01T09:54:11;10.25;;;8.15;;
35632;SDS011;21754;48.216;-1.628;2023-03-01T09:56:38;14.77;;;7.70;;
35632;SDS011;21754;48.216;-1.628;2023-03-01T10:01:50;11.30;;;7.07;;
35632;SDS011;21754;48.216;-1.628;2023-03-01T10:04:32;11.45;;;7.43;;
35632;SDS011;21754;48.216;-1.628;2023-03-01T10:09:25;14.98;;;9.05;;
35632;SDS011;21754;48.216;-1.628;2023-03-01T10:11:52;12.98;;;8.20;;
35632;SDS011;21754;48.216;-1.628;2023-03-01T10:16:55;12.57;;;7.38;;
35632;SDS011;21754;48.216;-1.628;2023-03-01T10:22:13;9.23;;;8.25;;
35632;SDS011;21754;48.216;-1.628;2023-03-01T10:24:40;14.50;;;9.27;;
35632;SDS011;21754;48.216;-1.628;2023-03-01T10:27:52;12.10;;;9.60;;
35632;SDS011;21754;48.216;-1.628;2023-03-01T10:30:07;10.27;;;8.60;;
35632;SDS011;21754;48.216;-1.628;2023-03-01T10:32:36;15.00;;;7.75;;
35632;SDS011;21754;48.216;-1.628;2023-03-01T10:35:15;11.60;;;8.18;;
35632;SDS011;21754;48.216;-1.628;2023-03-01T10:37:46;13.20;;;9.25;;
35632;SDS011;21754;48.216;-1.628;2023-03-01T10:40:21;12.57;;;7.68;;
35632;SDS011;21754;48.216;-1.628;2023-03-01T10:42:48;12.18;;;8.77;;
35632;SDS011;21754;48.216;-1.628;2023-03-01T10:45:31;12.13;;;8.73;;
35632;SDS011;21754;48.216;-1.628;2023-03-01T10:50:32;14.80;;;8.63;;
35632;SDS011;21754;48.216;-1.628;2023-03-01T10:52:59;14.68;;;8.82;;
35632;SDS011;21754;48.216;-1.628;2023-03-01T10:55:35;12.88;;;8.05;;
35632;SDS011;21754;48.216;-1.628;2023-03-01T11:00:35;17.42;;;11.02;;
35632;SDS011;21754;48.216;-1.628;2023-03-01T11:03:12;17.30;;;9.77;;
35632;SDS011;21754;48.216;-1.628;2023-03-01T11:05:59;18.52;;;10.77;;
35632;SDS011;21754;48.216;-1.628;2023-03-01T11:11:04;15.00;;;9.43;;
35632;SDS011;21754;48.216;-1.628;2023-03-01T11:13:30;20.85;;;12.88;;
35632;SDS011;21754;48.216;-1.628;2023-03-01T11:16:03;11.68;;;9.27;;
35632;SDS011;21754;48.216;-1.628;2023-03-01T11:18:31;14.90;;;8.80;;
35632;SDS011;21754;48.216;-1.628;2023-03-01T11:20:58;15.07;;;9.68;;
35632;SDS011;21754;48.216;-1.628;2023-03-01T11:23:25;13.73;;;10.43;;
35632;SDS011;21754;48.216;-1.628;2023-03-01T11:25:54;12.40;;;8.90;;
35632;SDS011;21754;48.216;-1.628;2023-03-01T11:28:21;26.27;;;10.05;;
35632;SDS011;21754;48.216;-1.628;2023-03-01T11:30:59;12.02;;;7.78;;
35632;SDS011;21754;48.216;-1.628;2023-03-01T11:33:34;20.40;;;10.85;;
35632;SDS011;21754;48.216;-1.628;2023-03-01T11:41:59;10.85;;;7.32;;
35632;SDS011;21754;48.216;-1.628;2023-03-01T11:44:49;11.85;;;8.05;;
35632;SDS011;21754;48.216;-1.628;2023-03-01T12:05:58;8.60;;;7.32;;
35632;SDS011;21754;48.216;-1.628;2023-03-01T12:08:37;8.85;;;7.63;;
35632;SDS011;21754;48.216;-1.628;2023-03-01T12:17:20;8.85;;;6.78;;
35632;SDS011;21754;48.216;-1.628;2023-03-01T12:22:06;10.57;;;7.80;;
35632;SDS011;21754;48.216;-1.628;2023-03-01T12:25:16;10.00;;;7.45;;
35632;SDS011;21754;48.216;-1.628;2023-03-01T12:30:16;5.72;;;4.45;;
35632;SDS011;21754;48.216;-1.628;2023-03-01T12:37:54;8.55;;;5.78;;
35632;SDS011;21754;48.216;-1.628;2023-03-01T12:51:17;4.32;;;3.92;;
35632;SDS011;21754;48.216;-1.628;2023-03-01T12:53:46;4.88;;;3.70;;
35632;SDS011;21754;48.216;-1.628;2023-03-01T12:56:14;4.03;;;3.65;;
35632;SDS011;21754;48.216;-1.628;2023-03-01T13:11:51;4.45;;;4.05;;
35632;SDS011;21754;48.216;-1.628;2023-03-01T13:16:47;4.43;;;3.05;;
35632;SDS011;21754;48.216;-1.628;2023-03-01T13:19:24;4.78;;;4.28;;
35632;SDS011;21754;48.216;-1.628;2023-03-01T13:21:51;3.88;;;3.58;;
35632;SDS011;21754;48.216;-1.628;2023-03-01T13:24:38;7.22;;;4.45;;
35632;SDS011;21754;48.216;-1.628;2023-03-01T13:29:44;3.67;;;3.38;;
35632;SDS011;21754;48.216;-1.628;2023-03-01T13:32:26;3.97;;;3.58;;
35632;SDS011;21754;48.216;-1.628;2023-03-01T13:35:02;4.57;;;4.10;;
35632;SDS011;21754;48.216;-1.628;2023-03-01T13:37:33;5.07;;;4.28;;
35632;SDS011;21754;48.216;-1.628;2023-03-01T13:40:03;6.97;;;4.72;;
35632;SDS011;21754;48.216;-1.628;2023-03-01T13:42:44;5.45;;;3.50;;
35632;SDS011;21754;48.216;-1.628;2023-03-01T13:47:57;4.47;;;3.65;;
35632;SDS011;21754;48.216;-1.628;2023-03-01T13:50:25;3.83;;;3.30;;
35632;SDS011;21754;48.216;-1.628;2023-03-01T13:52:55;7.13;;;4.07;;
35632;SDS011;21754;48.216;-1.628;2023-03-01T13:55:30;3.13;;;2.83;;
35632;SDS011;21754;48.216;-1.628;2023-03-01T13:57:59;6.97;;;3.60;;
35632;SDS011;21754;48.216;-1.628;2023-03-01T14:03:05;4.22;;;3.45;;
35632;SDS011;21754;48.216;-1.628;2023-03-01T14:05:32;29.10;;;12.65;;
35632;SDS011;21754;48.216;-1.628;2023-03-01T14:07:58;7.03;;;4.25;;
35632;SDS011;21754;48.216;-1.628;2023-03-01T14:10:25;3.22;;;2.92;;
35632;SDS011;21754;48.216;-1.628;2023-03-01T14:15:29;6.85;;;3.55;;
35632;SDS011;21754;48.216;-1.628;2023-03-01T14:17:59;4.00;;;3.30;;
35632;SDS011;21754;48.216;-1.628;2023-03-01T14:20:30;4.93;;;4.40;;
35632;SDS011;21754;48.216;-1.628;2023-03-01T14:22:58;5.57;;;4.60;;
35632;SDS011;21754;48.216;-1.628;2023-03-01T14:25:31;4.18;;;3.63;;
35632;SDS011;21754;48.216;-1.628;2023-03-01T14:30:41;6.05;;;5.20;;
35632;SDS011;21754;48.216;-1.628;2023-03-01T14:33:17;9.45;;;4.90;;
35632;SDS011;21754;48.216;-1.628;2023-03-01T14:35:51;8.40;;;5.30;;
35632;SDS011;21754;48.216;-1.628;2023-03-01T14:38:21;6.75;;;5.07;;
35632;SDS011;21754;48.216;-1.628;2023-03-01T14:40:48;9.52;;;5.78;;
35632;SDS011;21754;48.216;-1.628;2023-03-01T14:45:42;5.20;;;4.75;;
35632;SDS011;21754;48.216;-1.628;2023-03-01T14:48:12;7.25;;;4.82;;
35632;SDS011;21754;48.216;-1.628;2023-03-01T14:50:42;5.95;;;5.35;;
35632;SDS011;21754;48.216;-1.628;2023-03-01T14:53:14;9.80;;;5.28;;
35632;SDS011;21754;48.216;-1.628;2023-03-01T14:55:41;6.43;;;5.57;;
35632;SDS011;21754;48.216;-1.628;2023-03-01T14:58:12;8.32;;;5.50;;
35632;SDS011;21754;48.216;-1.628;2023-03-01T15:00:38;6.15;;;5.43;;
35632;SDS011;21754;48.216;-1.628;2023-03-01T15:03:07;5.63;;;5.05;;
35632;SDS011;21754;48.216;-1.628;2023-03-01T15:05:38;5.47;;;4.97;;
35632;SDS011;21754;48.216;-1.628;2023-03-01T15:08:04;11.70;;;6.25;;
35632;SDS011;21754;48.216;-1.628;2023-03-01T15:10:32;5.45;;;4.70;;
35632;SDS011;21754;48.216;-1.628;2023-03-01T15:13:14;7.70;;;6.47;;
35632;SDS011;21754;48.216;-1.628;2023-03-01T15:15:41;6.85;;;5.82;;
35632;SDS011;21754;48.216;-1.628;2023-03-01T15:18:15;10.32;;;6.15;;
35632;SDS011;21754;48.216;-1.628;2023-03-01T15:20:42;8.57;;;7.20;;
35632;SDS011;21754;48.216;-1.628;2023-03-01T15:23:24;8.95;;;7.10;;
35632;SDS011;21754;48.216;-1.628;2023-03-01T15:25:51;8.65;;;6.53;;
35632;SDS011;21754;48.216;-1.628;2023-03-01T15:28:21;15.93;;;7.43;;
35632;SDS011;21754;48.216;-1.628;2023-03-01T15:30:52;13.60;;;8.45;;
35632;SDS011;21754;48.216;-1.628;2023-03-01T15:33:20;10.00;;;7.72;;
35632;SDS011;21754;48.216;-1.628;2023-03-01T15:35:47;14.73;;;7.20;;
35632;SDS011;21754;48.216;-1.628;2023-03-01T15:40:48;9.40;;;7.32;;
35632;SDS011;21754;48.216;-1.628;2023-03-01T15:43:36;14.65;;;8.43;;
35632;SDS011;21754;48.216;-1.628;2023-03-01T15:46:00;13.48;;;7.47;;
35632;SDS011;21754;48.216;-1.628;2023-03-01T15:48:26;13.65;;;7.65;;
35632;SDS011;21754;48.216;-1.628;2023-03-01T15:50:56;12.27;;;8.82;;
35632;SDS011;21754;48.216;-1.628;2023-03-01T15:53:23;8.73;;;7.18;;
35632;SDS011;21754;48.216;-1.628;2023-03-01T15:55:49;8.43;;;6.95;;
35632;SDS011;21754;48.216;-1.628;2023-03-01T15:58:19;12.20;;;8.15;;
35632;SDS011;21754;48.216;-1.628;2023-03-01T16:00:46;10.48;;;7.88;;
35632;SDS011;21754;48.216;-1.628;2023-03-01T16:03:14;9.05;;;6.63;;
35632;SDS011;21754;48.216;-1.628;2023-03-01T16:05:46;11.85;;;6.60;;
35632;SDS011;21754;48.216;-1.628;2023-03-01T16:08:12;10.23;;;8.20;;
35632;SDS011;21754;48.216;-1.628;2023-03-01T16:10:38;10.63;;;7.05;;
35632;SDS011;21754;48.216;-1.628;2023-03-01T16:13:05;7.80;;;7.00;;
35632;SDS011;21754;48.216;-1.628;2023-03-01T16:15:33;9.55;;;6.93;;
35632;SDS011;21754;48.216;-1.628;2023-03-01T16:18:00;12.32;;;7.75;;
35632;SDS011;21754;48.216;-1.628;2023-03-01T16:20:27;7.18;;;6.25;;
35632;SDS011;21754;48.216;-1.628;2023-03-01T16:22:54;14.65;;;7.03;;
35632;SDS011;21754;48.216;-1.628;2023-03-01T16:25:20;11.77;;;6.93;;